createdAt,value
2022-11-04T00:02:08.801Z,8.60
2022-11-04T00:04:35.720Z,8.60
2022-11-04T00:07:22.506Z,8.60
2022-11-04T00:09:49.547Z,8.50
2022-11-04T00:12:25.216Z,8.50
2022-11-04T00:14:52.136Z,8.60
2022-11-04T00:17:24.801Z,8.50
2022-11-04T00:20:14.118Z,8.50
2022-11-04T00:23:00.714Z,8.50
2022-11-04T00:25:46.898Z,8.50
2022-11-04T00:28:33.899Z,8.50
2022-11-04T00:31:22.345Z,8.40
2022-11-04T00:33:50.304Z,8.40
2022-11-04T00:36:17.280Z,8.40
2022-11-04T00:38:44.644Z,8.50
2022-11-04T00:41:27.298Z,8.50
2022-11-04T00:43:58.146Z,8.40
2022-11-04T00:46:25.641Z,8.40
2022-11-04T00:48:52.498Z,8.40
2022-11-04T00:51:21.445Z,8.40
2022-11-04T00:53:48.501Z,8.40
2022-11-04T00:56:15.395Z,8.40
2022-11-04T00:58:42.431Z,8.40
2022-11-04T01:01:18.032Z,8.40
2022-11-04T01:03:47.259Z,8.40
2022-11-04T01:06:14.090Z,8.30
2022-11-04T01:08:41.146Z,8.30
2022-11-04T01:11:09.380Z,8.30
2022-11-04T01:13:36.797Z,8.20
2022-11-04T01:16:06.814Z,8.20
2022-11-04T01:18:34.013Z,8.20
2022-11-04T01:21:02.291Z,8.20
2022-11-04T01:23:29.468Z,8.20
2022-11-04T01:25:56.433Z,8.20
2022-11-04T01:28:23.693Z,8.20
2022-11-04T01:30:50.547Z,8.20
2022-11-04T01:33:17.661Z,8.20
2022-11-04T01:35:44.569Z,8.20
2022-11-04T01:38:11.572Z,8.20
2022-11-04T01:40:40.440Z,8.20
2022-11-04T01:43:19.408Z,8.20
2022-11-04T01:45:49.659Z,8.20
2022-11-04T01:48:37.131Z,8.20
2022-11-04T01:51:04.862Z,8.20
2022-11-04T01:53:39.430Z,8.20
2022-11-04T01:56:12.215Z,8.20
2022-11-04T01:58:46.325Z,8.30
2022-11-04T02:01:13.579Z,8.30
2022-11-04T02:03:50.750Z,8.30
2022-11-04T02:06:19.859Z,8.30
2022-11-04T02:08:47.939Z,8.30
2022-11-04T02:11:35.524Z,8.30
2022-11-04T02:14:02.769Z,8.30
2022-11-04T02:16:44.942Z,8.30
2022-11-04T02:19:24.233Z,8.20
2022-11-04T02:22:13.302Z,8.30
2022-11-04T02:24:51.349Z,8.30
2022-11-04T02:27:48.464Z,8.30
2022-11-04T02:30:21.070Z,8.30
2022-11-04T02:33:00.149Z,8.30
2022-11-04T02:35:34.298Z,8.30
2022-11-04T02:38:07.381Z,8.30
2022-11-04T02:40:48.220Z,8.30
2022-11-04T02:43:27.242Z,8.30
2022-11-04T02:46:17.383Z,8.30
2022-11-04T02:49:00.444Z,8.30
2022-11-04T02:51:35.348Z,8.30
2022-11-04T02:54:14.637Z,8.30
2022-11-04T02:56:47.058Z,8.30
2022-11-04T02:59:34.108Z,8.20
2022-11-04T03:02:05.462Z,8.20
2022-11-04T03:04:37.420Z,8.20
2022-11-04T03:07:08.563Z,8.20
2022-11-04T03:09:40.961Z,8.20
2022-11-04T03:12:16.387Z,8.30
2022-11-04T03:14:47.730Z,8.20
2022-11-04T03:17:47.662Z,8.30
2022-11-04T03:20:21.202Z,8.30
2022-11-04T03:22:48.492Z,8.30
2022-11-04T03:25:15.798Z,8.20
2022-11-04T03:27:49.272Z,8.20
2022-11-04T03:30:20.841Z,8.30
2022-11-04T03:33:06.749Z,8.20
2022-11-04T03:35:34.007Z,8.20
2022-11-04T03:38:01.093Z,8.20
2022-11-04T03:40:28.257Z,8.30
2022-11-04T03:43:03.588Z,8.20
2022-11-04T03:45:30.537Z,8.30
2022-11-04T03:47:58.143Z,8.30
2022-11-04T03:50:30.509Z,8.30
2022-11-04T03:52:58.811Z,8.30
2022-11-04T03:55:40.370Z,8.20
2022-11-04T03:58:38.113Z,8.20
2022-11-04T04:01:33.439Z,8.20
2022-11-04T04:04:14.938Z,8.30
2022-11-04T04:06:44.394Z,8.20
2022-11-04T04:09:42.350Z,8.30
2022-11-04T04:12:19.341Z,8.30
2022-11-04T04:15:03.009Z,8.30
2022-11-04T04:18:04.385Z,8.30
2022-11-04T04:20:34.101Z,8.30
2022-11-04T04:23:28.112Z,8.30
2022-11-04T04:26:16.872Z,8.20
2022-11-04T04:28:45.011Z,8.30
2022-11-04T04:31:14.136Z,8.30
2022-11-04T04:33:41.000Z,8.20
2022-11-04T04:36:09.828Z,8.20
2022-11-04T04:38:59.861Z,8.30
2022-11-04T04:41:48.612Z,8.30
2022-11-04T04:44:43.887Z,8.30
2022-11-04T04:47:20.081Z,8.30
2022-11-04T04:49:55.057Z,8.40
2022-11-04T04:52:24.329Z,8.40
2022-11-04T04:54:51.284Z,8.40
2022-11-04T04:57:18.172Z,8.30
2022-11-04T04:59:44.946Z,8.30
2022-11-04T05:02:11.939Z,8.30
2022-11-04T05:04:39.113Z,8.30
2022-11-04T05:07:07.863Z,8.30
2022-11-04T05:09:34.871Z,8.20
2022-11-04T05:12:01.949Z,8.20
2022-11-04T05:14:29.761Z,8.20
2022-11-04T05:16:56.837Z,8.30
2022-11-04T05:19:23.749Z,8.30
2022-11-04T05:21:50.645Z,8.30
2022-11-04T05:24:17.536Z,8.30
2022-11-04T05:26:44.415Z,8.30
2022-11-04T05:29:12.528Z,8.30
2022-11-04T05:31:39.639Z,8.30
2022-11-04T05:34:06.633Z,8.30
2022-11-04T05:36:33.578Z,8.30
2022-11-04T05:39:00.484Z,8.30
2022-11-04T05:41:27.595Z,8.30
2022-11-04T05:44:02.782Z,8.30
2022-11-04T05:46:30.255Z,8.30
2022-11-04T05:48:57.515Z,8.30
2022-11-04T05:51:27.536Z,8.30
2022-11-04T05:53:54.979Z,8.30
2022-11-04T05:56:22.021Z,8.30
2022-11-04T05:58:48.990Z,8.30
2022-11-04T06:01:25.027Z,8.30
2022-11-04T06:03:52.863Z,8.30
2022-11-04T06:06:21.083Z,8.30
2022-11-04T06:08:48.029Z,8.20
2022-11-04T06:11:15.104Z,8.20
2022-11-04T06:13:41.971Z,8.20
2022-11-04T06:16:08.865Z,8.20
2022-11-04T06:18:35.719Z,8.20
2022-11-04T06:21:14.691Z,8.20
2022-11-04T06:23:42.292Z,8.20
2022-11-04T06:26:10.284Z,8.20
2022-11-04T06:28:37.182Z,8.20
2022-11-04T06:31:06.075Z,8.30
2022-11-04T06:33:36.790Z,8.20
2022-11-04T06:36:06.444Z,8.20
2022-11-04T06:38:35.226Z,8.30
2022-11-04T06:41:02.163Z,8.30
2022-11-04T06:43:29.205Z,8.30
2022-11-04T06:46:00.590Z,8.20
2022-11-04T06:48:30.632Z,8.20
2022-11-04T06:51:02.030Z,8.30
2022-11-04T06:53:29.963Z,8.30
2022-11-04T06:56:04.042Z,8.30
2022-11-04T06:58:30.925Z,8.40
2022-11-04T07:00:57.871Z,8.40
2022-11-04T07:03:24.758Z,8.50
2022-11-04T07:05:51.657Z,8.50
2022-11-04T07:08:18.965Z,8.50
2022-11-04T07:10:45.906Z,8.50
2022-11-04T07:13:12.759Z,8.60
2022-11-04T07:15:40.276Z,8.60
2022-11-04T07:18:07.656Z,8.50
2022-11-04T07:20:36.263Z,8.60
2022-11-04T07:23:03.367Z,8.70
2022-11-04T07:25:30.488Z,8.70
2022-11-04T07:28:01.057Z,8.80
2022-11-04T07:30:29.571Z,8.80
2022-11-04T07:32:56.532Z,8.90
2022-11-04T07:35:23.383Z,8.90
2022-11-04T07:37:50.276Z,9.00
2022-11-04T07:40:17.321Z,9.00
2022-11-04T07:42:44.165Z,9.00
2022-11-04T07:45:11.292Z,9.00
2022-11-04T07:47:38.230Z,9.10
2022-11-04T07:50:10.750Z,9.10
2022-11-04T07:52:38.248Z,9.10
2022-11-04T07:55:06.059Z,9.10
2022-11-04T07:57:32.904Z,9.10
2022-11-04T07:59:59.829Z,9.20
2022-11-04T08:02:31.085Z,9.30
2022-11-04T08:05:00.932Z,9.30
2022-11-04T08:07:27.790Z,9.30
2022-11-04T08:09:54.669Z,9.30
2022-11-04T08:12:23.898Z,9.40
2022-11-04T08:14:51.407Z,9.50
2022-11-04T08:17:18.248Z,9.60
2022-11-04T08:19:47.487Z,9.50
2022-11-04T08:22:14.422Z,9.40
2022-11-04T08:24:41.343Z,9.50
2022-11-04T08:27:08.309Z,9.60
2022-11-04T08:29:36.015Z,9.60
2022-11-04T08:32:03.427Z,9.60
2022-11-04T08:34:30.380Z,9.70
2022-11-04T08:36:57.724Z,9.80
2022-11-04T08:39:25.228Z,9.80
2022-11-04T08:41:53.571Z,9.90
2022-11-04T08:44:20.997Z,10.00
2022-11-04T08:46:48.585Z,10.10
2022-11-04T08:49:20.793Z,10.10
2022-11-04T08:51:54.383Z,10.00
2022-11-04T08:54:21.204Z,9.90
2022-11-04T08:56:48.039Z,10.00
2022-11-04T08:59:15.261Z,10.00
2022-11-04T09:01:43.869Z,10.00
2022-11-04T09:04:12.501Z,9.90
2022-11-04T09:06:42.819Z,9.80
2022-11-04T09:09:14.006Z,9.80
2022-11-04T09:11:43.455Z,9.80
2022-11-04T09:14:11.227Z,9.90
2022-11-04T09:16:39.586Z,9.90
2022-11-04T09:19:07.364Z,9.80
2022-11-04T09:21:34.263Z,9.90
2022-11-04T09:24:01.168Z,9.80
2022-11-04T09:26:28.406Z,9.90
2022-11-04T09:28:57.816Z,9.90
2022-11-04T09:31:27.049Z,10.10
2022-11-04T09:33:57.316Z,10.20
2022-11-04T09:36:24.439Z,10.40
2022-11-04T09:38:51.672Z,10.60
2022-11-04T09:41:33.591Z,10.70
2022-11-04T09:44:27.261Z,10.70
2022-11-04T09:46:58.867Z,10.60
2022-11-04T09:49:29.889Z,10.60
2022-11-04T09:51:59.090Z,10.60
2022-11-04T09:54:49.075Z,10.60
2022-11-04T09:57:20.300Z,10.60
2022-11-04T09:59:48.121Z,10.60
2022-11-04T10:02:47.318Z,10.50
2022-11-04T10:05:35.936Z,10.60
2022-11-04T10:08:17.875Z,10.50
2022-11-04T10:11:19.831Z,10.60
2022-11-04T10:13:57.385Z,10.70
2022-11-04T10:16:50.894Z,10.60
2022-11-04T10:19:59.899Z,10.50
2022-11-04T10:22:56.362Z,10.50
2022-11-04T10:25:28.317Z,10.60
2022-11-04T10:27:55.312Z,10.50
2022-11-04T10:30:24.275Z,10.50
2022-11-04T10:33:03.307Z,10.50
2022-11-04T10:35:45.387Z,10.50
2022-11-04T10:38:20.478Z,10.60
2022-11-04T10:40:50.992Z,10.60
2022-11-04T10:43:39.549Z,10.60
2022-11-04T10:46:25.343Z,10.60
2022-11-04T10:48:59.560Z,10.60
2022-11-04T10:51:26.581Z,10.70
2022-11-04T10:54:02.464Z,10.70
2022-11-04T10:56:40.274Z,10.80
2022-11-04T10:59:44.509Z,10.90
2022-11-04T11:02:11.485Z,10.90
2022-11-04T11:04:44.552Z,11.00
2022-11-04T11:07:18.399Z,11.10
2022-11-04T11:09:54.539Z,11.00
2022-11-04T11:12:50.428Z,11.10
2022-11-04T11:15:26.470Z,11.20
2022-11-04T11:18:01.287Z,11.10
2022-11-04T11:20:28.234Z,11.10
2022-11-04T11:23:01.894Z,11.10
2022-11-04T11:25:35.820Z,11.00
2022-11-04T11:28:06.594Z,11.00
2022-11-04T11:30:37.435Z,11.00
2022-11-04T11:33:14.800Z,10.80
2022-11-04T11:35:48.124Z,10.80
2022-11-04T11:38:23.932Z,10.70
2022-11-04T11:41:18.727Z,10.60
2022-11-04T11:43:44.716Z,10.70
2022-11-04T11:46:13.481Z,10.60
2022-11-04T11:48:49.949Z,10.70
2022-11-04T11:51:31.567Z,10.60
2022-11-04T11:54:36.822Z,10.60
2022-11-04T11:57:17.582Z,10.60
2022-11-04T12:02:59.484Z,10.50
2022-11-04T12:11:44.790Z,10.60
2022-11-04T12:14:37.726Z,10.50
2022-11-04T12:17:10.336Z,10.60
2022-11-04T12:19:58.223Z,10.60
2022-11-04T12:23:11.858Z,10.60
2022-11-04T12:26:01.071Z,10.60
2022-11-04T12:28:36.583Z,10.60
2022-11-04T12:31:34.188Z,10.60
2022-11-04T12:34:24.220Z,10.60
2022-11-04T12:37:07.637Z,10.50
2022-11-04T12:39:56.261Z,10.50
2022-11-04T12:42:33.021Z,10.60
2022-11-04T12:45:26.319Z,10.60
2022-11-04T12:48:00.171Z,10.60
2022-11-04T12:51:04.088Z,10.60
2022-11-04T12:53:43.490Z,10.70
2022-11-04T12:56:12.362Z,10.60
2022-11-04T12:58:39.117Z,10.70
2022-11-04T13:01:38.907Z,10.70
2022-11-04T13:04:20.446Z,10.70
2022-11-04T13:06:54.016Z,10.80
2022-11-04T13:09:51.042Z,10.70
2022-11-04T13:12:25.887Z,10.70
2022-11-04T13:15:00.376Z,10.60
2022-11-04T13:17:31.241Z,10.60
2022-11-04T13:20:14.781Z,10.60
2022-11-04T13:22:48.885Z,10.60
2022-11-04T13:25:30.636Z,10.60
2022-11-04T13:27:59.177Z,10.60
2022-11-04T13:30:41.161Z,10.60
2022-11-04T13:33:17.158Z,10.50
2022-11-04T13:36:04.967Z,10.60
2022-11-04T13:38:34.481Z,10.50
2022-11-04T13:41:21.299Z,10.50
2022-11-04T13:43:54.020Z,10.50
2022-11-04T13:46:20.893Z,10.50
2022-11-04T13:49:12.192Z,10.40
2022-11-04T13:51:43.562Z,10.40
2022-11-04T13:54:35.924Z,10.40
2022-11-04T13:57:12.454Z,10.40
2022-11-04T13:59:40.637Z,10.40
2022-11-04T14:02:19.769Z,10.40
2022-11-04T14:04:47.647Z,10.30
2022-11-04T14:07:18.045Z,10.20
2022-11-04T14:09:44.934Z,10.20
2022-11-04T14:12:14.636Z,10.20
2022-11-04T14:14:43.633Z,10.20
2022-11-04T14:17:29.419Z,10.10
2022-11-04T14:20:16.587Z,10.10
2022-11-04T14:22:43.451Z,10.10
2022-11-04T14:25:19.727Z,10.00
2022-11-04T14:27:49.793Z,10.00
2022-11-04T14:30:43.324Z,9.90
2022-11-04T14:33:50.479Z,9.90
2022-11-04T14:36:20.502Z,9.90
2022-11-04T14:38:55.759Z,9.80
2022-11-04T14:41:23.034Z,9.80
2022-11-04T14:43:50.705Z,9.80
2022-11-04T14:46:23.498Z,9.80
2022-11-04T14:48:54.430Z,9.80
2022-11-04T14:51:30.732Z,9.80
2022-11-04T14:54:25.000Z,9.80
2022-11-04T14:57:13.327Z,9.70
2022-11-04T14:59:40.595Z,9.70
2022-11-04T15:02:16.304Z,9.70
2022-11-04T15:05:02.657Z,9.70
2022-11-04T15:07:39.989Z,9.60
2022-11-04T15:10:19.978Z,9.60
2022-11-04T15:12:54.714Z,9.50
2022-11-04T15:15:24.888Z,9.50
2022-11-04T15:17:52.080Z,9.50
2022-11-04T15:20:25.410Z,9.40
2022-11-04T15:22:53.753Z,9.40
2022-11-04T15:25:21.652Z,9.40
2022-11-04T15:27:49.504Z,9.40
2022-11-04T15:30:22.150Z,9.40
2022-11-04T15:32:57.207Z,9.40
2022-11-04T15:35:25.548Z,9.30
2022-11-04T15:37:54.277Z,9.40
2022-11-04T15:40:22.133Z,9.40
2022-11-04T15:42:50.466Z,9.30
2022-11-04T15:45:46.567Z,9.30
2022-11-04T15:48:37.917Z,9.30
2022-11-04T15:51:16.175Z,9.30
2022-11-04T15:54:15.573Z,9.30
2022-11-04T15:56:52.735Z,9.30
2022-11-04T15:59:25.808Z,9.20
2022-11-04T16:01:53.717Z,9.20
2022-11-04T16:04:23.673Z,9.20
2022-11-04T16:07:07.096Z,9.20
2022-11-04T16:09:47.069Z,9.20
2022-11-04T16:12:28.972Z,9.20
2022-11-04T16:14:58.403Z,9.20
2022-11-04T16:17:26.481Z,9.20
2022-11-04T16:20:00.523Z,9.20
2022-11-04T16:22:33.500Z,9.30
2022-11-04T16:25:02.769Z,9.30
2022-11-04T16:27:33.219Z,9.20
2022-11-04T16:30:08.212Z,9.30
2022-11-04T16:32:45.079Z,9.30
2022-11-04T16:35:24.915Z,9.30
2022-11-04T16:37:53.094Z,9.30
2022-11-04T16:40:21.750Z,9.30
2022-11-04T16:42:50.656Z,9.30
2022-11-04T16:45:20.462Z,9.30
2022-11-04T16:47:47.265Z,9.30
2022-11-04T16:50:16.302Z,9.30
2022-11-04T16:52:44.442Z,9.30
2022-11-04T16:55:13.220Z,9.30
2022-11-04T16:57:40.645Z,9.30
2022-11-04T17:00:08.363Z,9.30
2022-11-04T17:02:41.224Z,9.30
2022-11-04T17:05:09.468Z,9.40
2022-11-04T17:07:52.720Z,9.30
2022-11-04T17:10:25.546Z,9.30
2022-11-04T17:12:52.392Z,9.30
2022-11-04T17:15:19.501Z,9.30
2022-11-04T17:17:46.640Z,9.30
2022-11-04T17:20:17.710Z,9.30
2022-11-04T17:22:45.581Z,9.30
2022-11-04T17:25:27.885Z,9.20
2022-11-04T17:27:55.175Z,9.20
2022-11-04T17:30:23.119Z,9.30
2022-11-04T17:32:50.129Z,9.20
2022-11-04T17:35:18.334Z,9.20
2022-11-04T17:37:45.655Z,9.30
2022-11-04T17:40:15.742Z,9.20
2022-11-04T17:43:04.412Z,9.30
2022-11-04T17:45:35.414Z,9.20
2022-11-04T17:48:06.285Z,9.20
2022-11-04T17:50:33.596Z,9.20
2022-11-04T17:53:00.702Z,9.20
2022-11-04T17:55:28.014Z,9.30
2022-11-04T17:57:55.560Z,9.20
2022-11-04T18:00:25.981Z,9.20
2022-11-04T18:02:52.953Z,9.20
2022-11-04T18:05:20.373Z,9.20
2022-11-04T18:07:47.236Z,9.20
2022-11-04T18:10:14.115Z,9.20
2022-11-04T18:12:41.687Z,9.20
2022-11-04T18:15:12.156Z,9.10
2022-11-04T18:17:43.473Z,9.10
2022-11-04T18:20:15.557Z,9.10
2022-11-04T18:22:43.565Z,9.10
2022-11-04T18:25:11.553Z,9.10
2022-11-04T18:27:38.518Z,9.10
2022-11-04T18:30:05.948Z,9.10
2022-11-04T18:32:33.259Z,9.10
2022-11-04T18:35:00.141Z,9.10
2022-11-04T18:37:28.571Z,9.10
2022-11-04T18:39:55.513Z,9.10
2022-11-04T18:42:23.318Z,9.00
2022-11-04T18:44:50.389Z,9.10
2022-11-04T18:47:17.861Z,9.10
2022-11-04T18:49:46.347Z,9.10
2022-11-04T18:52:13.350Z,9.10
2022-11-04T18:54:42.231Z,9.00
2022-11-04T18:57:10.359Z,9.00
2022-11-04T18:59:37.215Z,9.00
2022-11-04T19:02:05.703Z,9.10
2022-11-04T19:04:33.140Z,9.00
2022-11-04T19:07:00.044Z,9.00
2022-11-04T19:12:32.198Z,9.00
2022-11-04T19:14:59.196Z,9.00
2022-11-04T19:17:26.256Z,9.00
2022-11-04T19:19:53.145Z,9.00
2022-11-04T19:22:20.010Z,9.00
2022-11-04T19:24:46.927Z,9.00
2022-11-04T19:27:13.882Z,9.00
2022-11-04T19:29:40.725Z,9.00
2022-11-04T19:32:13.734Z,8.90
2022-11-04T19:34:41.411Z,8.90
2022-11-04T19:37:08.627Z,8.80
2022-11-04T19:39:35.553Z,8.80
2022-11-04T19:42:21.352Z,8.80
2022-11-04T19:44:48.227Z,8.80
2022-11-04T19:47:15.161Z,8.80
2022-11-04T19:49:42.386Z,8.80
2022-11-04T19:52:09.343Z,8.80
2022-11-04T19:54:36.271Z,8.80
2022-11-04T19:57:03.174Z,8.70
2022-11-04T19:59:30.124Z,8.70
2022-11-04T20:01:57.029Z,8.70
2022-11-04T20:04:24.058Z,8.70
2022-11-04T20:06:50.909Z,8.60
2022-11-04T20:09:17.775Z,8.60
2022-11-04T20:12:03.257Z,8.60
2022-11-04T20:14:30.145Z,8.50
2022-11-04T20:16:57.061Z,8.40
2022-11-04T20:19:24.188Z,8.30
2022-11-04T20:21:51.469Z,8.20
2022-11-04T20:24:18.631Z,8.10
2022-11-04T20:26:49.187Z,7.90
2022-11-04T20:29:16.411Z,7.90
2022-11-04T20:31:44.583Z,7.80
2022-11-04T20:34:13.762Z,7.80
2022-11-04T20:36:40.930Z,7.80
2022-11-04T20:39:12.977Z,7.70
2022-11-04T20:41:39.890Z,7.70
2022-11-04T20:44:06.742Z,7.70
2022-11-04T20:46:34.941Z,7.60
2022-11-04T20:49:03.049Z,7.60
2022-11-04T20:51:35.416Z,7.60
2022-11-04T20:54:06.658Z,7.60
2022-11-04T20:56:38.096Z,7.60
2022-11-04T20:59:06.308Z,7.60
2022-11-04T21:01:39.116Z,7.50
2022-11-04T21:04:11.657Z,7.50
2022-11-04T21:06:39.628Z,7.40
2022-11-04T21:09:08.528Z,7.30
2022-11-04T21:11:35.906Z,7.30
2022-11-04T21:14:04.398Z,7.20
2022-11-04T21:16:31.351Z,7.20
2022-11-04T21:18:58.341Z,7.10
2022-11-04T21:21:28.133Z,7.10
2022-11-04T21:24:02.901Z,7.00
2022-11-04T21:26:34.169Z,7.00
2022-11-04T21:29:03.989Z,6.90
2022-11-04T21:31:32.417Z,6.90
2022-11-04T21:33:59.863Z,6.80
2022-11-04T21:36:26.843Z,6.80
2022-11-04T21:38:53.768Z,6.80
2022-11-04T21:41:25.138Z,6.70
2022-11-04T21:43:58.590Z,6.70
2022-11-04T21:46:26.295Z,6.70
2022-11-04T21:48:53.209Z,6.70
2022-11-04T21:51:22.931Z,6.60
2022-11-04T21:53:49.980Z,6.60
2022-11-04T21:56:23.211Z,6.60
2022-11-04T21:58:51.873Z,6.60
2022-11-04T22:01:20.946Z,6.60
2022-11-04T22:03:59.647Z,6.60
2022-11-04T22:06:33.476Z,6.60
2022-11-04T22:09:01.351Z,6.50
2022-11-04T22:11:30.609Z,6.50
2022-11-04T22:14:04.370Z,6.60
2022-11-04T22:16:34.433Z,6.50
2022-11-04T22:19:03.082Z,6.50
2022-11-04T22:21:31.187Z,6.50
2022-11-04T22:23:58.589Z,6.50
2022-11-04T22:26:28.086Z,6.40
2022-11-04T22:28:56.279Z,6.40
2022-11-04T22:31:27.500Z,6.30
2022-11-04T22:33:55.095Z,6.30
2022-11-04T22:36:29.350Z,6.30
2022-11-04T22:38:56.948Z,6.20
2022-11-04T22:41:30.099Z,6.20
2022-11-04T22:43:57.530Z,6.20
2022-11-04T22:46:26.831Z,6.20
2022-11-04T22:48:53.931Z,6.20
2022-11-04T22:51:21.070Z,6.20
2022-11-04T22:53:56.113Z,6.20
2022-11-04T22:56:24.949Z,6.20
2022-11-04T22:58:54.167Z,6.20
2022-11-04T23:01:21.493Z,6.20
2022-11-04T23:03:50.936Z,6.20
2022-11-04T23:06:17.917Z,6.10
2022-11-04T23:08:46.005Z,6.10
2022-11-04T23:11:43.007Z,6.00
2022-11-04T23:14:31.326Z,6.00
2022-11-04T23:17:17.451Z,6.00
2022-11-04T23:19:44.464Z,5.90
2022-11-04T23:22:29.634Z,5.90
2022-11-04T23:25:11.632Z,5.80
2022-11-04T23:28:15.372Z,5.70
2022-11-04T23:30:45.759Z,5.70
2022-11-04T23:33:14.691Z,5.70
2022-11-04T23:36:06.883Z,5.60
2022-11-04T23:38:35.503Z,5.60
2022-11-04T23:41:24.333Z,5.60
2022-11-04T23:43:51.504Z,5.60
2022-11-04T23:46:42.577Z,5.50
2022-11-04T23:49:30.245Z,5.50
2022-11-04T23:52:32.966Z,5.40
2022-11-04T23:55:18.554Z,5.40
2022-11-04T23:58:04.145Z,5.40
